Norrskar — SGFD — position and weather

sailwx.info

Track history (hours):
 
Tides and Currents Weather Stations Pressure Air Temp Water Temp Dewpoint Dewpoint Depression Visibility Wind Speed Wind Dir Waves Ship Positions

Norrskar

Last reported at 2016-Jun-25 19:33 UTC. Time now 2016-Jun-25 19:42 UTC.
Position N 59°20' E 018°05'.

Length 35 m.

Type: Ship. MMSI: 265522430.

Date/timePositionNaut miles runAvg speedWind from/ knotsBaromVisibWave heightAir tempDewpointWater temp
2016-Jun-25 19:33N 59°20' E 018°05'0 0.0
2016-Jun-25 18:33N 59°20' E 018°05'1 1.1
2016-Jun-25 17:33N 59°19' E 018°07'1 0.1
2016-Jun-25 08:33N 59°19' E 018°05'0 0.3
2016-Jun-25 07:33N 59°20' E 018°05'0 0.0
2016-Jun-25 06:33N 59°20' E 018°05'0 0.0
2016-Jun-25 05:33N 59°20' E 018°05'0 0.0
2016-Jun-25 04:33N 59°20' E 018°05'0 0.0
2016-Jun-25 03:33N 59°20' E 018°05'0 0.0
2016-Jun-25 02:33N 59°20' E 018°05'0 0.0
2016-Jun-25 01:33N 59°20' E 018°05'0 0.0
2016-Jun-25 00:33N 59°20' E 018°05'0 0.0
2016-Jun-24 23:33N 59°20' E 018°05'0 0.0
2016-Jun-24 22:33N 59°20' E 018°05'0 0.0
2016-Jun-24 21:33N 59°20' E 018°05'0 0.0
2016-Jun-24 20:33N 59°20' E 018°05'0 0.0
2016-Jun-24 19:33N 59°20' E 018°05'0 0.0
2016-Jun-24 18:33N 59°20' E 018°05'1 1.2
2016-Jun-24 17:33N 59°19' E 018°07'1 0.1
2016-Jun-24 08:34N 59°19' E 018°05'0 0.2
2016-Jun-24 07:33N 59°20' E 018°05'0 0.0
2016-Jun-24 04:33N 59°20' E 018°05'0 0.0
2016-Jun-24 03:33N 59°20' E 018°05'0 0.0
2016-Jun-24 02:33N 59°20' E 018°05'0 0.0
2016-Jun-24 01:33N 59°20' E 018°05'0 0.0
2016-Jun-24 00:33N 59°20' E 018°05'0 0.0
2016-Jun-23 23:33N 59°20' E 018°05'0 0.0
2016-Jun-23 22:33N 59°20' E 018°05'0 0.0
2016-Jun-23 21:33N 59°20' E 018°05'0 0.0
2016-Jun-23 20:33N 59°20' E 018°05'1 0.9
2016-Jun-23 19:33N 59°19' E 018°06'3 0.9
2016-Jun-23 16:27N 59°20' E 018°11'3 3.7
2016-Jun-23 15:33N 59°20' E 018°05'3 0.6
2016-Jun-23 09:24N 59°20' E 018°11'3 4.1
2016-Jun-23 08:33N 59°20' E 018°05'0 0.0
2016-Jun-23 07:33N 59°20' E 018°05'0 0.0
2016-Jun-23 05:33N 59°20' E 018°05'0 0.0
2016-Jun-23 04:33N 59°20' E 018°05'0 0.0
2016-Jun-23 02:31N 59°20' E 018°05'0 0.0
2016-Jun-23 01:22N 59°20' E 018°05'0 0.0
2016-Jun-23 00:33N 59°20' E 018°05'0 0.0
2016-Jun-22 23:33N 59°20' E 018°05'0 0.0
2016-Jun-22 22:30N 59°20' E 018°05'0 0.0
2016-Jun-22 21:31N 59°20' E 018°05'0 0.0
2016-Jun-22 20:32N 59°20' E 018°05'3 2.9
2016-Jun-22 19:29N 59°19' E 018°11'1 0.2
2016-Jun-22 16:25N 59°20' E 018°12'4 4.1
2016-Jun-22 15:33N 59°20' E 018°05'4 0.6
2016-Jun-22 09:25N 59°20' E 018°12'4 4.1
2016-Jun-22 08:33N 59°20' E 018°05'0 0.0
2016-Jun-22 07:33N 59°20' E 018°05'0 0.0
2016-Jun-22 06:34N 59°20' E 018°05'0 0.0
2016-Jun-22 05:33N 59°20' E 018°05'0 0.0
2016-Jun-22 04:33N 59°20' E 018°05'0 0.0
2016-Jun-22 03:33N 59°20' E 018°05'0 0.0
2016-Jun-22 02:33N 59°20' E 018°05'0 0.0
2016-Jun-22 01:33N 59°20' E 018°05'0 0.0
2016-Jun-22 00:26N 59°20' E 018°05'0 0.0
2016-Jun-21 23:33N 59°20' E 018°05'0 0.0
2016-Jun-21 22:33N 59°20' E 018°05'0 0.0
2016-Jun-21 21:33N 59°20' E 018°05'0 0.0
2016-Jun-21 20:33N 59°20' E 018°05'1 1.0
2016-Jun-21 19:33N 59°19' E 018°06'3 0.9
2016-Jun-21 16:25N 59°20' E 018°12'4 4.0
2016-Jun-21 15:32N 59°20' E 018°05'3 0.5
2016-Jun-21 09:24N 59°19' E 018°11'3 3.6
2016-Jun-21 08:33N 59°20' E 018°05'0 0.0
2016-Jun-21 07:33N 59°20' E 018°05'0 0.0
2016-Jun-21 06:33N 59°20' E 018°05'0 0.0
2016-Jun-21 04:33N 59°20' E 018°05'0 0.0
2016-Jun-21 03:30N 59°20' E 018°05'0 0.0
2016-Jun-21 02:22N 59°20' E 018°05'0 0.0
2016-Jun-21 01:33N 59°20' E 018°05'0 0.0
2016-Jun-21 00:34N 59°20' E 018°05'0 0.0
2016-Jun-20 23:33N 59°20' E 018°05'0 0.0
2016-Jun-20 22:33N 59°20' E 018°05'0 0.0
2016-Jun-20 21:33N 59°20' E 018°05'0 0.0
2016-Jun-20 20:31N 59°20' E 018°05'3 2.7
2016-Jun-20 19:24N 59°20' E 018°11'2 0.5
2016-Jun-20 16:31N 59°20' E 018°13'4 4.5
2016-Jun-20 15:33N 59°20' E 018°05'3 0.6
2016-Jun-20 09:25N 59°20' E 018°11'3 4.0
2016-Jun-20 08:34N 59°20' E 018°05'0 0.0
2016-Jun-20 07:33N 59°20' E 018°05'0 0.0
2016-Jun-20 06:33N 59°20' E 018°05'0 0.0
2016-Jun-20 05:34N 59°20' E 018°05'0 0.0
2016-Jun-20 04:33N 59°20' E 018°05'0 0.0
2016-Jun-20 03:34N 59°20' E 018°05'0 0.0
2016-Jun-20 02:33N 59°20' E 018°05'0 0.0
2016-Jun-20 01:34N 59°20' E 018°05'0 0.0
2016-Jun-20 00:33N 59°20' E 018°05'0 0.0
2016-Jun-19 23:33N 59°20' E 018°05'0 0.0
2016-Jun-19 22:33N 59°20' E 018°05'0 0.0
2016-Jun-19 21:33N 59°20' E 018°05'0 0.0
2016-Jun-19 20:33N 59°20' E 018°05'0 0.0
2016-Jun-19 19:33N 59°20' E 018°05'0 0.0
2016-Jun-19 18:33N 59°20' E 018°05'0 0.0
2016-Jun-19 17:34N 59°20' E 018°05'0 0.5
2016-Jun-19 16:34N 59°19' E 018°05'3 0.6
2016-Jun-19 11:26N 59°20' E 018°12'4 4.0
2016-Jun-19 10:33N 59°20' E 018°05'0 0.0
2016-Jun-19 09:33N 59°20' E 018°05'0 0.0
2016-Jun-19 08:33N 59°20' E 018°05'0 0.0
2016-Jun-19 07:33N 59°20' E 018°05'0 0.0
2016-Jun-19 06:33N 59°20' E 018°05'0 0.0
2016-Jun-19 05:33N 59°20' E 018°05'0 0.0
2016-Jun-19 04:33N 59°20' E 018°05'0 0.0
2016-Jun-19 03:33N 59°20' E 018°05'0 0.0
2016-Jun-19 02:33N 59°20' E 018°05'0 0.0
2016-Jun-19 01:34N 59°20' E 018°05'0 0.0
2016-Jun-19 00:34N 59°20' E 018°05'0 0.0
2016-Jun-18 23:33N 59°20' E 018°05'0 0.0
2016-Jun-18 22:33N 59°20' E 018°05'0 0.0
2016-Jun-18 21:33N 59°20' E 018°05'0 0.0
2016-Jun-18 20:33N 59°20' E 018°05'0 0.0
2016-Jun-18 19:33N 59°20' E 018°05'0 0.0
2016-Jun-18 18:33N 59°20' E 018°05'0 0.0
2016-Jun-18 17:34N 59°20' E 018°05'0 0.0
2016-Jun-18 16:34N 59°20' E 018°05'0 0.0
2016-Jun-18 15:33N 59°20' E 018°05'7 5.6
2016-Jun-18 14:20N 59°22' E 018°17'3 1.0
2016-Jun-18 11:31N 59°20' E 018°13'4 4.6
2016-Jun-18 10:33N 59°20' E 018°05'0 0.0
2016-Jun-18 09:34N 59°20' E 018°05'0 0.0
2016-Jun-18 08:33N 59°20' E 018°05'0 0.0
2016-Jun-18 07:34N 59°20' E 018°05'0 0.0
2016-Jun-18 06:33N 59°20' E 018°05'0 0.0
2016-Jun-18 05:33N 59°20' E 018°05'0 0.0
2016-Jun-18 04:34N 59°20' E 018°05'0 0.0
2016-Jun-18 03:33N 59°20' E 018°05'0 0.0
2016-Jun-18 02:33N 59°20' E 018°05'0 0.0
2016-Jun-18 01:34N 59°20' E 018°05'0 0.0
2016-Jun-18 00:34N 59°20' E 018°05'0 0.0
2016-Jun-17 23:33N 59°20' E 018°05'0 0.0
2016-Jun-17 22:33N 59°20' E 018°05'0 0.0
2016-Jun-17 21:33N 59°20' E 018°05'0 0.0
2016-Jun-17 20:33N 59°20' E 018°05'3 3.2
2016-Jun-17 19:32N 59°20' E 018°11'6 2.3
2016-Jun-17 17:10N 59°23' E 018°20'5 7.3
2016-Jun-17 16:27N 59°20' E 018°12'4 4.0
2016-Jun-17 15:34N 59°20' E 018°05'0 0.0
2016-Jun-17 14:33N 59°20' E 018°05'0 0.0
2016-Jun-17 13:34N 59°20' E 018°05'0 0.0
2016-Jun-17 12:33N 59°20' E 018°05'0 0.0
2016-Jun-17 11:33N 59°20' E 018°05'0 0.0
2016-Jun-17 10:33N 59°20' E 018°05'0 0.0
2016-Jun-17 09:33N 59°20' E 018°05'0 0.0
2016-Jun-17 08:33N 59°20' E 018°05'0 0.0
2016-Jun-17 07:33N 59°20' E 018°05'0 0.0
2016-Jun-17 06:34N 59°20' E 018°05'0 0.0
2016-Jun-17 05:34N 59°20' E 018°05'0 0.0
2016-Jun-17 04:34N 59°20' E 018°05'0 0.0
2016-Jun-17 03:33N 59°20' E 018°05'0 0.0
2016-Jun-17 02:34N 59°20' E 018°05'0 0.0
2016-Jun-17 01:33N 59°20' E 018°05'0 0.0
2016-Jun-17 00:34N 59°20' E 018°05'0 0.0
2016-Jun-16 23:33N 59°20' E 018°05'0 0.0
2016-Jun-16 22:34N 59°20' E 018°05'0 0.0
2016-Jun-16 21:33N 59°20' E 018°05'0 0.0
2016-Jun-16 20:34N 59°20' E 018°05'3 3.1
2016-Jun-16 19:33N 59°20' E 018°11'5 2.3
2016-Jun-16 17:11N 59°23' E 018°20'5 6.7
2016-Jun-16 16:25N 59°20' E 018°11'3 4.0
2016-Jun-16 15:33N 59°20' E 018°05'0 0.0
2016-Jun-16 14:34N 59°20' E 018°05'0 0.0
2016-Jun-16 13:33N 59°20' E 018°05'0 0.0
2016-Jun-16 12:34N 59°20' E 018°05'0 0.0
2016-Jun-16 11:34N 59°20' E 018°05'0 0.0
2016-Jun-16 10:33N 59°20' E 018°05'0 0.0
2016-Jun-16 09:34N 59°20' E 018°05'0 0.0
2016-Jun-16 08:33N 59°20' E 018°05'0 0.0
2016-Jun-16 07:34N 59°20' E 018°05'0 0.0
2016-Jun-16 06:33N 59°20' E 018°05'0 0.0
2016-Jun-16 05:33N 59°20' E 018°05'0 0.0
2016-Jun-16 04:34N 59°20' E 018°05'0 0.0
2016-Jun-16 03:34N 59°20' E 018°05'0 0.0
2016-Jun-16 02:33N 59°20' E 018°05'0 0.0
2016-Jun-16 01:33N 59°20' E 018°05'0 0.0
2016-Jun-16 00:34N 59°20' E 018°05'0 0.0
2016-Jun-15 23:34N 59°20' E 018°05'0 0.0
2016-Jun-15 22:33N 59°20' E 018°05'0 0.0
2016-Jun-15 21:33N 59°20' E 018°05'0 0.0
2016-Jun-15 20:34N 59°20' E 018°05'0 0.0
2016-Jun-15 19:34N 59°20' E 018°05'  
Track history (hours):
 
Tides and Currents Weather Stations Pressure Air Temp Water Temp Dewpoint Dewpoint Depression Visibility Wind Speed Wind Dir Waves Ship Positions

Norrskar

Last reported at 2016-Jun-25 19:33 UTC. Time now 2016-Jun-25 19:42 UTC.
Position N 59°20' E 018°05'.

Length 35 m.

Type: Ship. MMSI: 265522430.

Date/timePositionNaut miles runAvg speedWind from/ knotsBaromVisibWave heightAir tempDewpointWater temp
2016-Jun-25 19:33N 59°20' E 018°05'0 0.0
2016-Jun-25 18:33N 59°20' E 018°05'1 1.1
2016-Jun-25 17:33N 59°19' E 018°07'1 0.1
2016-Jun-25 08:33N 59°19' E 018°05'0 0.3
2016-Jun-25 07:33N 59°20' E 018°05'0 0.0
2016-Jun-25 06:33N 59°20' E 018°05'0 0.0
2016-Jun-25 05:33N 59°20' E 018°05'0 0.0
2016-Jun-25 04:33N 59°20' E 018°05'0 0.0
2016-Jun-25 03:33N 59°20' E 018°05'0 0.0
2016-Jun-25 02:33N 59°20' E 018°05'0 0.0
2016-Jun-25 01:33N 59°20' E 018°05'0 0.0
2016-Jun-25 00:33N 59°20' E 018°05'0 0.0
2016-Jun-24 23:33N 59°20' E 018°05'0 0.0
2016-Jun-24 22:33N 59°20' E 018°05'0 0.0
2016-Jun-24 21:33N 59°20' E 018°05'0 0.0
2016-Jun-24 20:33N 59°20' E 018°05'0 0.0
2016-Jun-24 19:33N 59°20' E 018°05'0 0.0
2016-Jun-24 18:33N 59°20' E 018°05'1 1.2
2016-Jun-24 17:33N 59°19' E 018°07'1 0.1
2016-Jun-24 08:34N 59°19' E 018°05'0 0.2
2016-Jun-24 07:33N 59°20' E 018°05'0 0.0
2016-Jun-24 04:33N 59°20' E 018°05'0 0.0
2016-Jun-24 03:33N 59°20' E 018°05'0 0.0
2016-Jun-24 02:33N 59°20' E 018°05'0 0.0
2016-Jun-24 01:33N 59°20' E 018°05'0 0.0
2016-Jun-24 00:33N 59°20' E 018°05'0 0.0
2016-Jun-23 23:33N 59°20' E 018°05'0 0.0
2016-Jun-23 22:33N 59°20' E 018°05'0 0.0
2016-Jun-23 21:33N 59°20' E 018°05'0 0.0
2016-Jun-23 20:33N 59°20' E 018°05'1 0.9
2016-Jun-23 19:33N 59°19' E 018°06'3 0.9
2016-Jun-23 16:27N 59°20' E 018°11'3 3.7
2016-Jun-23 15:33N 59°20' E 018°05'3 0.6
2016-Jun-23 09:24N 59°20' E 018°11'3 4.1
2016-Jun-23 08:33N 59°20' E 018°05'0 0.0
2016-Jun-23 07:33N 59°20' E 018°05'0 0.0
2016-Jun-23 05:33N 59°20' E 018°05'0 0.0
2016-Jun-23 04:33N 59°20' E 018°05'0 0.0
2016-Jun-23 02:31N 59°20' E 018°05'0 0.0
2016-Jun-23 01:22N 59°20' E 018°05'0 0.0
2016-Jun-23 00:33N 59°20' E 018°05'0 0.0
2016-Jun-22 23:33N 59°20' E 018°05'0 0.0
2016-Jun-22 22:30N 59°20' E 018°05'0 0.0
2016-Jun-22 21:31N 59°20' E 018°05'0 0.0
2016-Jun-22 20:32N 59°20' E 018°05'3 2.9
2016-Jun-22 19:29N 59°19' E 018°11'1 0.2
2016-Jun-22 16:25N 59°20' E 018°12'4 4.1
2016-Jun-22 15:33N 59°20' E 018°05'4 0.6
2016-Jun-22 09:25N 59°20' E 018°12'4 4.1
2016-Jun-22 08:33N 59°20' E 018°05'0 0.0
2016-Jun-22 07:33N 59°20' E 018°05'0 0.0
2016-Jun-22 06:34N 59°20' E 018°05'0 0.0
2016-Jun-22 05:33N 59°20' E 018°05'0 0.0
2016-Jun-22 04:33N 59°20' E 018°05'0 0.0
2016-Jun-22 03:33N 59°20' E 018°05'0 0.0
2016-Jun-22 02:33N 59°20' E 018°05'0 0.0
2016-Jun-22 01:33N 59°20' E 018°05'0 0.0
2016-Jun-22 00:26N 59°20' E 018°05'0 0.0
2016-Jun-21 23:33N 59°20' E 018°05'0 0.0
2016-Jun-21 22:33N 59°20' E 018°05'0 0.0
2016-Jun-21 21:33N 59°20' E 018°05'0 0.0
2016-Jun-21 20:33N 59°20' E 018°05'1 1.0
2016-Jun-21 19:33N 59°19' E 018°06'3 0.9
2016-Jun-21 16:25N 59°20' E 018°12'4 4.0
2016-Jun-21 15:32N 59°20' E 018°05'3 0.5
2016-Jun-21 09:24N 59°19' E 018°11'3 3.6
2016-Jun-21 08:33N 59°20' E 018°05'0 0.0
2016-Jun-21 07:33N 59°20' E 018°05'0 0.0
2016-Jun-21 06:33N 59°20' E 018°05'0 0.0
2016-Jun-21 04:33N 59°20' E 018°05'0 0.0
2016-Jun-21 03:30N 59°20' E 018°05'0 0.0
2016-Jun-21 02:22N 59°20' E 018°05'0 0.0
2016-Jun-21 01:33N 59°20' E 018°05'0 0.0
2016-Jun-21 00:34N 59°20' E 018°05'0 0.0
2016-Jun-20 23:33N 59°20' E 018°05'0 0.0
2016-Jun-20 22:33N 59°20' E 018°05'0 0.0
2016-Jun-20 21:33N 59°20' E 018°05'0 0.0
2016-Jun-20 20:31N 59°20' E 018°05'3 2.7
2016-Jun-20 19:24N 59°20' E 018°11'2 0.5
2016-Jun-20 16:31N 59°20' E 018°13'4 4.5
2016-Jun-20 15:33N 59°20' E 018°05'3 0.6
2016-Jun-20 09:25N 59°20' E 018°11'3 4.0
2016-Jun-20 08:34N 59°20' E 018°05'0 0.0
2016-Jun-20 07:33N 59°20' E 018°05'0 0.0
2016-Jun-20 06:33N 59°20' E 018°05'0 0.0
2016-Jun-20 05:34N 59°20' E 018°05'0 0.0
2016-Jun-20 04:33N 59°20' E 018°05'0 0.0
2016-Jun-20 03:34N 59°20' E 018°05'0 0.0
2016-Jun-20 02:33N 59°20' E 018°05'0 0.0
2016-Jun-20 01:34N 59°20' E 018°05'0 0.0
2016-Jun-20 00:33N 59°20' E 018°05'0 0.0
2016-Jun-19 23:33N 59°20' E 018°05'0 0.0
2016-Jun-19 22:33N 59°20' E 018°05'0 0.0
2016-Jun-19 21:33N 59°20' E 018°05'0 0.0
2016-Jun-19 20:33N 59°20' E 018°05'0 0.0
2016-Jun-19 19:33N 59°20' E 018°05'0 0.0
2016-Jun-19 18:33N 59°20' E 018°05'0 0.0
2016-Jun-19 17:34N 59°20' E 018°05'0 0.5
2016-Jun-19 16:34N 59°19' E 018°05'3 0.6
2016-Jun-19 11:26N 59°20' E 018°12'4 4.0
2016-Jun-19 10:33N 59°20' E 018°05'0 0.0
2016-Jun-19 09:33N 59°20' E 018°05'0 0.0
2016-Jun-19 08:33N 59°20' E 018°05'0 0.0
2016-Jun-19 07:33N 59°20' E 018°05'0 0.0
2016-Jun-19 06:33N 59°20' E 018°05'0 0.0
2016-Jun-19 05:33N 59°20' E 018°05'0 0.0
2016-Jun-19 04:33N 59°20' E 018°05'0 0.0
2016-Jun-19 03:33N 59°20' E 018°05'0 0.0
2016-Jun-19 02:33N 59°20' E 018°05'0 0.0
2016-Jun-19 01:34N 59°20' E 018°05'0 0.0
2016-Jun-19 00:34N 59°20' E 018°05'0 0.0
2016-Jun-18 23:33N 59°20' E 018°05'0 0.0
2016-Jun-18 22:33N 59°20' E 018°05'0 0.0
2016-Jun-18 21:33N 59°20' E 018°05'0 0.0
2016-Jun-18 20:33N 59°20' E 018°05'0 0.0
2016-Jun-18 19:33N 59°20' E 018°05'0 0.0
2016-Jun-18 18:33N 59°20' E 018°05'0 0.0
2016-Jun-18 17:34N 59°20' E 018°05'0 0.0
2016-Jun-18 16:34N 59°20' E 018°05'0 0.0
2016-Jun-18 15:33N 59°20' E 018°05'7 5.6
2016-Jun-18 14:20N 59°22' E 018°17'3 1.0
2016-Jun-18 11:31N 59°20' E 018°13'4 4.6
2016-Jun-18 10:33N 59°20' E 018°05'0 0.0
2016-Jun-18 09:34N 59°20' E 018°05'0 0.0
2016-Jun-18 08:33N 59°20' E 018°05'0 0.0
2016-Jun-18 07:34N 59°20' E 018°05'0 0.0
2016-Jun-18 06:33N 59°20' E 018°05'0 0.0
2016-Jun-18 05:33N 59°20' E 018°05'0 0.0
2016-Jun-18 04:34N 59°20' E 018°05'0 0.0
2016-Jun-18 03:33N 59°20' E 018°05'0 0.0
2016-Jun-18 02:33N 59°20' E 018°05'0 0.0
2016-Jun-18 01:34N 59°20' E 018°05'0 0.0
2016-Jun-18 00:34N 59°20' E 018°05'0 0.0
2016-Jun-17 23:33N 59°20' E 018°05'0 0.0
2016-Jun-17 22:33N 59°20' E 018°05'0 0.0
2016-Jun-17 21:33N 59°20' E 018°05'0 0.0
2016-Jun-17 20:33N 59°20' E 018°05'3 3.2
2016-Jun-17 19:32N 59°20' E 018°11'6 2.3
2016-Jun-17 17:10N 59°23' E 018°20'5 7.3
2016-Jun-17 16:27N 59°20' E 018°12'4 4.0
2016-Jun-17 15:34N 59°20' E 018°05'0 0.0
2016-Jun-17 14:33N 59°20' E 018°05'0 0.0
2016-Jun-17 13:34N 59°20' E 018°05'0 0.0
2016-Jun-17 12:33N 59°20' E 018°05'0 0.0
2016-Jun-17 11:33N 59°20' E 018°05'0 0.0
2016-Jun-17 10:33N 59°20' E 018°05'0 0.0
2016-Jun-17 09:33N 59°20' E 018°05'0 0.0
2016-Jun-17 08:33N 59°20' E 018°05'0 0.0
2016-Jun-17 07:33N 59°20' E 018°05'0 0.0
2016-Jun-17 06:34N 59°20' E 018°05'0 0.0
2016-Jun-17 05:34N 59°20' E 018°05'0 0.0
2016-Jun-17 04:34N 59°20' E 018°05'0 0.0
2016-Jun-17 03:33N 59°20' E 018°05'0 0.0
2016-Jun-17 02:34N 59°20' E 018°05'0 0.0
2016-Jun-17 01:33N 59°20' E 018°05'0 0.0
2016-Jun-17 00:34N 59°20' E 018°05'0 0.0
2016-Jun-16 23:33N 59°20' E 018°05'0 0.0
2016-Jun-16 22:34N 59°20' E 018°05'0 0.0
2016-Jun-16 21:33N 59°20' E 018°05'0 0.0
2016-Jun-16 20:34N 59°20' E 018°05'3 3.1
2016-Jun-16 19:33N 59°20' E 018°11'5 2.3
2016-Jun-16 17:11N 59°23' E 018°20'5 6.7
2016-Jun-16 16:25N 59°20' E 018°11'3 4.0
2016-Jun-16 15:33N 59°20' E 018°05'0 0.0
2016-Jun-16 14:34N 59°20' E 018°05'0 0.0
2016-Jun-16 13:33N 59°20' E 018°05'0 0.0
2016-Jun-16 12:34N 59°20' E 018°05'0 0.0
2016-Jun-16 11:34N 59°20' E 018°05'0 0.0
2016-Jun-16 10:33N 59°20' E 018°05'0 0.0
2016-Jun-16 09:34N 59°20' E 018°05'0 0.0
2016-Jun-16 08:33N 59°20' E 018°05'0 0.0
2016-Jun-16 07:34N 59°20' E 018°05'0 0.0
2016-Jun-16 06:33N 59°20' E 018°05'0 0.0
2016-Jun-16 05:33N 59°20' E 018°05'0 0.0
2016-Jun-16 04:34N 59°20' E 018°05'0 0.0
2016-Jun-16 03:34N 59°20' E 018°05'0 0.0
2016-Jun-16 02:33N 59°20' E 018°05'0 0.0
2016-Jun-16 01:33N 59°20' E 018°05'0 0.0
2016-Jun-16 00:34N 59°20' E 018°05'0 0.0
2016-Jun-15 23:34N 59°20' E 018°05'0 0.0
2016-Jun-15 22:33N 59°20' E 018°05'0 0.0
2016-Jun-15 21:33N 59°20' E 018°05'0 0.0
2016-Jun-15 20:34N 59°20' E 018°05'0 0.0
2016-Jun-15 19:34N 59°20' E 018°05'  

Dump ship's entire track history